createdAt,value
2022-08-24T00:01:58.557Z,21.11
2022-08-24T00:04:25.052Z,21.13
2022-08-24T00:06:52.274Z,21.13
2022-08-24T00:09:18.649Z,21.00
2022-08-24T00:11:45.061Z,20.94
2022-08-24T00:14:12.049Z,20.84
2022-08-24T00:16:38.441Z,20.81
2022-08-24T00:19:04.883Z,20.88
2022-08-24T00:21:31.309Z,20.98
2022-08-24T00:23:57.714Z,20.89
2022-08-24T00:26:29.277Z,20.85
2022-08-24T00:28:56.079Z,20.76
2022-08-24T00:31:22.484Z,20.64
2022-08-24T00:33:48.891Z,20.57
2022-08-24T00:36:15.241Z,20.46
2022-08-24T00:38:42.375Z,20.28
2022-08-24T00:41:08.746Z,20.27
2022-08-24T00:43:35.124Z,20.26
2022-08-24T00:46:01.629Z,20.19
2022-08-24T00:48:29.120Z,20.15
2022-08-24T00:50:59.330Z,20.05
2022-08-24T00:53:29.124Z,20.12
2022-08-24T00:55:57.384Z,20.06
2022-08-24T00:58:25.692Z,19.99
2022-08-24T01:00:55.097Z,19.99
2022-08-24T01:03:21.528Z,19.93
2022-08-24T01:05:48.611Z,19.87
2022-08-24T01:08:14.953Z,19.86
2022-08-24T01:10:42.414Z,19.90
2022-08-24T01:13:09.147Z,19.90
2022-08-24T01:15:37.502Z,19.75
2022-08-24T01:18:22.513Z,19.54
2022-08-24T01:20:54.388Z,19.42
2022-08-24T01:23:36.228Z,19.25
2022-08-24T01:26:02.855Z,19.27
2022-08-24T01:28:30.206Z,18.94
2022-08-24T01:30:58.655Z,18.89
2022-08-24T01:33:26.431Z,18.96
2022-08-24T01:36:00.101Z,18.92
2022-08-24T01:38:26.455Z,18.75
2022-08-24T01:40:53.566Z,18.47
2022-08-24T01:43:19.913Z,18.49
2022-08-24T01:45:46.265Z,18.57
2022-08-24T01:48:13.857Z,18.65
2022-08-24T01:50:40.242Z,18.76
2022-08-24T01:53:07.235Z,18.70
2022-08-24T01:55:33.806Z,18.56
2022-08-24T01:58:00.352Z,18.39
2022-08-24T02:00:26.814Z,18.48
2022-08-24T02:02:53.203Z,18.37
2022-08-24T02:05:19.607Z,18.29
2022-08-24T02:07:45.962Z,18.51
2022-08-24T02:10:14.914Z,18.45
2022-08-24T02:12:41.607Z,18.70
2022-08-24T02:15:08.674Z,18.80
2022-08-24T02:17:35.533Z,19.03
2022-08-24T02:20:02.278Z,19.11
2022-08-24T02:22:29.006Z,18.99
2022-08-24T02:24:55.370Z,18.95
2022-08-24T02:27:22.011Z,18.97
2022-08-24T02:29:48.366Z,19.00
2022-08-24T02:32:14.775Z,19.14
2022-08-24T02:34:41.174Z,19.15
2022-08-24T02:37:07.533Z,19.20
2022-08-24T02:39:33.912Z,19.29
2022-08-24T02:42:00.269Z,19.20
2022-08-24T02:44:26.876Z,19.06
2022-08-24T02:46:53.219Z,19.01
2022-08-24T02:49:21.317Z,19.01
2022-08-24T02:51:48.273Z,19.03
2022-08-24T02:54:17.662Z,19.03
2022-08-24T02:56:44.510Z,19.21
2022-08-24T02:59:11.503Z,19.35
2022-08-24T03:01:37.887Z,19.49
2022-08-24T03:04:04.335Z,19.57
2022-08-24T03:06:30.681Z,19.51
2022-08-24T03:08:57.161Z,19.42
2022-08-24T03:11:27.720Z,19.46
2022-08-24T03:13:55.394Z,19.50
2022-08-24T03:16:21.761Z,19.47
2022-08-24T03:18:48.100Z,19.46
2022-08-24T03:21:15.055Z,19.39
2022-08-24T03:23:41.407Z,19.31
2022-08-24T03:26:07.765Z,19.31
2022-08-24T03:28:34.122Z,19.30
2022-08-24T03:31:00.849Z,19.16
2022-08-24T03:33:27.222Z,19.14
2022-08-24T03:35:54.621Z,19.15
2022-08-24T03:38:21.297Z,19.11
2022-08-24T03:40:47.761Z,19.01
2022-08-24T03:43:34.357Z,19.08
2022-08-24T03:46:02.842Z,19.10
2022-08-24T03:48:29.774Z,19.04
2022-08-24T03:50:56.323Z,19.01
2022-08-24T03:53:22.695Z,18.97
2022-08-24T03:55:49.059Z,19.02
2022-08-24T03:58:15.408Z,18.98
2022-08-24T04:00:42.845Z,19.01
2022-08-24T04:03:12.029Z,18.95
2022-08-24T04:05:38.714Z,19.02
2022-08-24T04:08:06.030Z,18.98
2022-08-24T04:10:32.520Z,18.92
2022-08-24T04:12:59.811Z,18.81
2022-08-24T04:15:28.352Z,18.70
2022-08-24T04:17:54.706Z,18.78
2022-08-24T04:20:21.259Z,18.75
2022-08-24T04:22:51.363Z,18.83
2022-08-24T04:25:22.866Z,18.82
2022-08-24T04:27:51.176Z,18.80
2022-08-24T04:30:17.551Z,18.81
2022-08-24T04:32:43.898Z,18.75
2022-08-24T04:35:10.573Z,18.67
2022-08-24T04:37:36.926Z,18.61
2022-08-24T04:40:03.806Z,18.58
2022-08-24T04:42:31.589Z,18.65
2022-08-24T04:44:59.748Z,18.75
2022-08-24T04:47:26.258Z,18.90
2022-08-24T04:49:52.656Z,18.91
2022-08-24T04:52:19.046Z,19.05
2022-08-24T04:54:45.424Z,19.25
2022-08-24T04:57:17.285Z,19.36
2022-08-24T04:59:44.707Z,19.40
2022-08-24T05:02:11.177Z,19.45
2022-08-24T05:04:37.565Z,19.45
2022-08-24T05:07:04.019Z,19.44
2022-08-24T05:09:30.397Z,19.45
2022-08-24T05:11:58.080Z,19.52
2022-08-24T05:14:29.000Z,19.66
2022-08-24T05:16:55.525Z,19.68
2022-08-24T05:19:23.182Z,19.82
2022-08-24T05:21:49.548Z,19.83
2022-08-24T05:24:16.172Z,19.94
2022-08-24T05:26:42.523Z,20.02
2022-08-24T05:29:08.895Z,20.04
2022-08-24T05:31:35.289Z,20.16
2022-08-24T05:34:01.764Z,20.28
2022-08-24T05:36:29.076Z,20.31
2022-08-24T05:38:55.899Z,20.39
2022-08-24T05:41:22.414Z,20.44
2022-08-24T05:43:49.022Z,20.53
2022-08-24T05:46:15.598Z,20.63
2022-08-24T05:48:42.262Z,20.75
2022-08-24T05:51:08.770Z,20.91
2022-08-24T05:53:35.299Z,21.16
2022-08-24T05:56:09.670Z,21.25
2022-08-24T05:58:37.425Z,21.25
2022-08-24T06:01:14.028Z,21.33
2022-08-24T06:03:40.630Z,21.49
2022-08-24T06:06:08.551Z,21.58
2022-08-24T06:08:41.390Z,21.65
2022-08-24T06:11:08.366Z,21.88
2022-08-24T06:13:35.794Z,21.95
2022-08-24T06:16:20.389Z,22.06
2022-08-24T06:18:49.050Z,22.32
2022-08-24T06:21:16.397Z,22.38
2022-08-24T06:23:44.167Z,22.62
2022-08-24T06:26:29.284Z,22.70
2022-08-24T06:28:55.643Z,22.59
2022-08-24T06:31:22.255Z,22.59
2022-08-24T06:33:51.073Z,22.76
2022-08-24T06:36:17.459Z,22.93
2022-08-24T06:38:49.249Z,23.16
2022-08-24T06:41:16.428Z,23.02
2022-08-24T06:43:42.782Z,23.18
2022-08-24T06:46:09.293Z,23.14
2022-08-24T06:48:35.692Z,23.01
2022-08-24T06:51:02.470Z,22.79
2022-08-24T06:53:28.918Z,22.96
2022-08-24T06:55:58.770Z,22.90
2022-08-24T06:58:25.760Z,22.97
2022-08-24T07:00:52.118Z,23.25
2022-08-24T07:03:20.321Z,23.36
2022-08-24T07:05:52.939Z,23.60
2022-08-24T07:08:19.776Z,23.68
2022-08-24T07:10:46.174Z,23.76
2022-08-24T07:13:13.608Z,23.79
2022-08-24T07:15:40.528Z,23.64
2022-08-24T07:18:10.085Z,23.78
2022-08-24T07:20:36.927Z,23.68
2022-08-24T07:23:06.357Z,23.51
2022-08-24T07:25:33.567Z,23.30
2022-08-24T07:28:01.593Z,23.24
2022-08-24T07:30:28.161Z,23.54
2022-08-24T07:32:55.153Z,23.93
2022-08-24T07:35:22.155Z,24.20
2022-08-24T07:37:48.512Z,24.48
2022-08-24T07:40:17.365Z,24.37
2022-08-24T07:42:47.206Z,24.55
2022-08-24T07:45:13.811Z,24.41
2022-08-24T07:47:44.736Z,24.15
2022-08-24T07:50:16.235Z,24.33
2022-08-24T07:52:42.789Z,24.36
2022-08-24T07:55:09.269Z,24.66
2022-08-24T07:57:35.639Z,24.73
2022-08-24T08:00:02.206Z,24.90
2022-08-24T08:02:36.146Z,24.95
2022-08-24T08:05:02.812Z,24.96
2022-08-24T08:07:31.024Z,25.34
2022-08-24T08:09:57.374Z,25.36
2022-08-24T08:12:23.733Z,25.44
2022-08-24T08:14:50.085Z,25.48
2022-08-24T08:17:16.777Z,25.60
2022-08-24T08:19:43.794Z,25.56
2022-08-24T08:22:28.836Z,25.62
2022-08-24T08:24:55.183Z,25.73
2022-08-24T08:27:21.865Z,25.87
2022-08-24T08:29:48.958Z,25.76
2022-08-24T08:32:17.094Z,25.90
2022-08-24T08:34:43.925Z,26.04
2022-08-24T08:37:11.161Z,26.34
2022-08-24T08:39:37.507Z,26.31
2022-08-24T08:42:22.846Z,26.29
2022-08-24T08:45:12.873Z,26.38
2022-08-24T08:47:57.968Z,26.68
2022-08-24T08:50:34.113Z,26.43
2022-08-24T08:53:03.687Z,26.85
2022-08-24T08:55:33.849Z,26.86
2022-08-24T08:58:08.508Z,27.06
2022-08-24T09:00:56.141Z,27.34
2022-08-24T09:03:32.426Z,27.37
2022-08-24T09:06:05.230Z,27.36
2022-08-24T09:08:51.886Z,27.48
2022-08-24T09:11:38.075Z,27.41
2022-08-24T09:14:09.879Z,27.67
2022-08-24T09:16:47.284Z,27.57
2022-08-24T09:19:33.854Z,27.66
2022-08-24T09:22:13.587Z,27.51
2022-08-24T09:24:52.206Z,27.61
2022-08-24T09:27:25.703Z,27.91
2022-08-24T09:30:04.454Z,28.08
2022-08-24T09:32:35.517Z,28.44
2022-08-24T09:35:03.312Z,28.80
2022-08-24T09:37:32.776Z,29.06
2022-08-24T09:39:59.478Z,28.85
2022-08-24T09:42:32.387Z,28.90
2022-08-24T09:45:17.416Z,29.14
2022-08-24T09:48:02.527Z,29.17
2022-08-24T09:50:44.329Z,29.25
2022-08-24T09:53:29.293Z,29.25
2022-08-24T09:56:14.398Z,28.83
2022-08-24T09:58:50.549Z,29.27
2022-08-24T10:01:20.567Z,29.63
2022-08-24T10:04:08.357Z,29.86
2022-08-24T10:06:57.995Z,29.67
2022-08-24T10:09:43.039Z,29.45
2022-08-24T10:12:21.762Z,29.61
2022-08-24T10:15:14.687Z,29.86
2022-08-24T10:17:42.970Z,29.44
2022-08-24T10:20:17.032Z,29.55
2022-08-24T10:22:43.307Z,29.67
2022-08-24T10:25:28.581Z,29.23
2022-08-24T10:27:54.862Z,29.55
2022-08-24T10:30:34.011Z,29.89
2022-08-24T10:33:03.339Z,29.51
2022-08-24T10:35:35.169Z,29.43
2022-08-24T10:38:32.467Z,30.11
2022-08-24T10:41:05.752Z,30.45
2022-08-24T10:43:34.917Z,30.54
2022-08-24T10:46:07.373Z,30.36
2022-08-24T10:48:34.614Z,30.50
2022-08-24T10:51:10.005Z,30.91
2022-08-24T10:53:36.468Z,31.04
2022-08-24T10:56:08.089Z,30.89
2022-08-24T10:58:40.942Z,31.06
2022-08-24T11:01:15.648Z,30.99
2022-08-24T11:03:50.762Z,31.07
2022-08-24T11:06:17.476Z,31.19
2022-08-24T11:09:00.656Z,30.83
2022-08-24T11:11:31.439Z,30.87
2022-08-24T11:14:02.212Z,30.71
2022-08-24T11:16:38.815Z,31.10
2022-08-24T11:19:07.369Z,31.39
2022-08-24T11:21:33.813Z,31.71
2022-08-24T11:24:04.095Z,31.46
2022-08-24T11:26:30.473Z,32.31
2022-08-24T11:29:01.051Z,32.34
2022-08-24T11:31:35.962Z,32.30
2022-08-24T11:34:03.905Z,31.66
2022-08-24T11:36:32.637Z,31.20
2022-08-24T11:39:12.166Z,31.43
2022-08-24T11:41:43.266Z,31.13
2022-08-24T11:44:09.549Z,31.79
2022-08-24T11:46:51.700Z,31.74
2022-08-24T11:49:26.837Z,31.99
2022-08-24T11:51:53.127Z,32.52
2022-08-24T11:54:30.136Z,32.57
2022-08-24T11:57:10.804Z,32.61
2022-08-24T11:59:39.550Z,31.97
2022-08-24T12:02:08.446Z,32.27
2022-08-24T12:04:41.483Z,32.62
2022-08-24T12:07:11.686Z,32.52
2022-08-24T12:09:53.282Z,32.31
2022-08-24T12:12:32.133Z,32.50
2022-08-24T12:15:05.786Z,32.39
2022-08-24T12:17:50.538Z,32.72
2022-08-24T12:20:27.191Z,32.47
2022-08-24T12:22:54.266Z,32.68
2022-08-24T12:25:39.369Z,33.08
2022-08-24T12:28:05.988Z,32.53
2022-08-24T12:30:32.463Z,32.67
2022-08-24T12:33:00.558Z,33.21
2022-08-24T12:35:31.571Z,33.68
2022-08-24T12:38:04.352Z,33.40
2022-08-24T12:40:40.059Z,33.42
2022-08-24T12:43:08.618Z,33.78
2022-08-24T12:45:35.409Z,33.84
2022-08-24T12:48:15.498Z,33.66
2022-08-24T12:51:00.523Z,32.88
2022-08-24T12:53:36.204Z,33.02
2022-08-24T12:56:07.384Z,33.40
2022-08-24T12:58:53.798Z,33.70
2022-08-24T13:01:21.296Z,33.36
2022-08-24T13:04:03.422Z,33.53
2022-08-24T13:06:37.891Z,34.07
2022-08-24T13:09:05.674Z,33.65
2022-08-24T13:11:33.257Z,33.53
2022-08-24T13:14:12.555Z,33.83
2022-08-24T13:16:44.912Z,33.46
2022-08-24T13:19:16.579Z,32.75
2022-08-24T13:21:44.539Z,33.59
2022-08-24T13:24:29.641Z,33.99
2022-08-24T13:26:56.700Z,34.20
2022-08-24T13:29:25.322Z,34.53
2022-08-24T13:31:52.426Z,33.98
2022-08-24T13:34:20.775Z,34.00
2022-08-24T13:36:49.009Z,34.19
2022-08-24T13:39:20.901Z,34.29
2022-08-24T13:41:49.478Z,33.38
2022-08-24T13:44:19.176Z,33.70
2022-08-24T13:46:54.804Z,33.77
2022-08-24T13:49:30.053Z,34.00
2022-08-24T13:52:04.658Z,33.62
2022-08-24T13:54:45.346Z,32.87
2022-08-24T13:57:19.708Z,32.57
2022-08-24T13:59:52.532Z,32.85
2022-08-24T14:02:34.067Z,33.33
2022-08-24T14:05:09.387Z,33.26
2022-08-24T14:07:48.089Z,33.52
2022-08-24T14:10:23.164Z,34.01
2022-08-24T14:12:52.591Z,33.58
2022-08-24T14:15:25.111Z,33.13
2022-08-24T14:17:58.173Z,33.39
2022-08-24T14:20:27.748Z,32.83
2022-08-24T14:23:00.439Z,33.39
2022-08-24T14:25:30.269Z,32.68
2022-08-24T14:27:59.773Z,33.13
2022-08-24T14:30:26.108Z,33.24
2022-08-24T14:32:58.538Z,33.35
2022-08-24T14:35:31.201Z,33.91
2022-08-24T14:38:01.559Z,34.09
2022-08-24T14:40:37.283Z,33.70
2022-08-24T14:43:16.098Z,33.07
2022-08-24T14:46:01.265Z,32.12
2022-08-24T14:48:33.429Z,31.44
2022-08-24T14:50:59.735Z,31.17
2022-08-24T14:53:26.102Z,31.04
2022-08-24T14:56:01.904Z,30.84
2022-08-24T14:58:32.479Z,30.89
2022-08-24T15:01:05.088Z,30.55
2022-08-24T15:03:34.630Z,30.46
2022-08-24T15:06:25.822Z,30.52
2022-08-24T15:08:49.870Z,30.36
2022-08-24T15:11:18.229Z,30.46
2022-08-24T15:13:48.976Z,30.44
2022-08-24T15:16:34.624Z,30.40
2022-08-24T15:19:04.502Z,29.98
2022-08-24T15:21:34.448Z,30.08
2022-08-24T15:24:08.056Z,29.99
2022-08-24T15:26:45.238Z,29.98
2022-08-24T15:29:15.743Z,29.86
2022-08-24T15:31:42.323Z,29.90
2022-08-24T15:34:08.917Z,29.80
2022-08-24T15:36:35.332Z,29.82
2022-08-24T15:39:02.039Z,29.62
2022-08-24T15:41:32.265Z,29.57
2022-08-24T15:44:01.396Z,29.40
2022-08-24T15:46:42.537Z,29.30
2022-08-24T15:49:17.179Z,29.23
2022-08-24T15:51:43.533Z,29.29
2022-08-24T15:54:31.402Z,29.28
2022-08-24T15:56:59.426Z,29.35
2022-08-24T15:59:28.250Z,29.26
2022-08-24T16:02:29.865Z,29.35
2022-08-24T16:05:14.841Z,29.27
2022-08-24T16:07:57.299Z,29.14
2022-08-24T16:10:30.934Z,29.13
2022-08-24T16:13:07.462Z,29.09
2022-08-24T16:15:33.829Z,29.03
2022-08-24T16:18:00.287Z,28.93
2022-08-24T16:20:26.632Z,29.00
2022-08-24T16:23:00.275Z,28.88
2022-08-24T16:25:28.507Z,28.80
2022-08-24T16:28:03.398Z,28.70
2022-08-24T16:30:46.683Z,28.63
2022-08-24T16:33:31.237Z,28.58
2022-08-24T16:35:58.945Z,28.54
2022-08-24T16:38:27.950Z,28.52
2022-08-24T16:40:55.561Z,28.49
2022-08-24T16:43:21.919Z,28.44
2022-08-24T16:45:48.316Z,28.39
2022-08-24T16:48:14.695Z,28.44
2022-08-24T16:50:41.056Z,28.31
2022-08-24T16:53:07.482Z,28.23
2022-08-24T16:55:33.833Z,28.13
2022-08-24T16:58:01.498Z,28.03
2022-08-24T17:00:28.574Z,27.93
2022-08-24T17:02:55.198Z,27.87
2022-08-24T17:05:22.036Z,27.77
2022-08-24T17:07:50.210Z,27.67
2022-08-24T17:10:17.062Z,27.72
2022-08-24T17:12:43.564Z,27.74
2022-08-24T17:15:11.684Z,27.52
2022-08-24T17:17:38.355Z,27.51
2022-08-24T17:20:06.869Z,27.49
2022-08-24T17:22:33.449Z,27.37
2022-08-24T17:25:01.732Z,27.22
2022-08-24T17:27:29.186Z,26.99
2022-08-24T17:29:55.586Z,27.02
2022-08-24T17:32:21.936Z,27.02
2022-08-24T17:34:48.347Z,26.92
2022-08-24T17:37:14.948Z,26.80
2022-08-24T17:39:41.337Z,26.75
2022-08-24T17:42:22.291Z,26.49
2022-08-24T17:44:54.924Z,26.67
2022-08-24T17:47:22.044Z,26.43
2022-08-24T17:49:48.413Z,26.31
2022-08-24T17:52:14.778Z,26.23
2022-08-24T17:54:41.147Z,26.19
2022-08-24T17:57:07.487Z,25.99
2022-08-24T17:59:34.881Z,25.87
2022-08-24T18:02:12.322Z,25.68
2022-08-24T18:04:38.708Z,25.30
2022-08-24T18:07:09.596Z,25.03
2022-08-24T18:09:41.434Z,24.92
2022-08-24T18:12:07.880Z,24.60
2022-08-24T18:14:34.627Z,24.38
2022-08-24T18:17:05.339Z,24.38
2022-08-24T18:19:32.217Z,24.45
2022-08-24T18:21:58.585Z,24.32
2022-08-24T18:24:25.764Z,24.39
2022-08-24T18:26:52.571Z,24.26
2022-08-24T18:29:19.232Z,24.34
2022-08-24T18:32:03.007Z,24.27
2022-08-24T18:34:36.189Z,24.29
2022-08-24T18:37:12.109Z,24.26
2022-08-24T18:39:38.573Z,24.22
2022-08-24T18:42:05.375Z,24.16
2022-08-24T18:44:31.997Z,24.04
2022-08-24T18:46:58.448Z,24.15
2022-08-24T18:49:24.870Z,24.12
2022-08-24T18:51:51.405Z,24.09
2022-08-24T18:54:29.350Z,24.14
2022-08-24T18:56:55.805Z,24.22
2022-08-24T18:59:22.191Z,24.36
2022-08-24T19:02:07.597Z,24.25
2022-08-24T19:04:34.070Z,24.13
2022-08-24T19:07:02.792Z,24.04
2022-08-24T19:09:33.935Z,24.02
2022-08-24T19:12:00.785Z,24.05
2022-08-24T19:14:27.145Z,23.91
2022-08-24T19:16:53.500Z,23.92
2022-08-24T19:19:22.264Z,23.76
2022-08-24T19:21:48.892Z,23.70
2022-08-24T19:24:15.251Z,23.70
2022-08-24T19:26:41.616Z,23.79
2022-08-24T19:29:08.085Z,23.69
2022-08-24T19:31:34.654Z,23.66
2022-08-24T19:34:03.662Z,23.56
2022-08-24T19:36:30.272Z,23.55
2022-08-24T19:38:56.635Z,23.68
2022-08-24T19:41:23.380Z,23.60
2022-08-24T19:44:27.206Z,23.38
2022-08-24T19:46:54.259Z,23.22
2022-08-24T19:49:20.917Z,23.18
2022-08-24T19:51:47.273Z,23.12
2022-08-24T19:54:13.614Z,23.07
2022-08-24T19:56:39.975Z,22.95
2022-08-24T19:59:07.129Z,22.89
2022-08-24T20:01:35.061Z,22.94
2022-08-24T20:04:02.229Z,22.85
2022-08-24T20:06:29.210Z,22.80
2022-08-24T20:08:55.584Z,22.56
2022-08-24T20:11:25.311Z,22.66
2022-08-24T20:13:51.889Z,22.52
2022-08-24T20:16:19.092Z,22.53
2022-08-24T20:18:45.546Z,22.28
2022-08-24T20:21:16.004Z,22.18
2022-08-24T20:23:42.782Z,22.11
2022-08-24T20:26:09.209Z,22.29
2022-08-24T20:28:55.976Z,22.15
2022-08-24T20:31:28.039Z,22.02
2022-08-24T20:33:55.253Z,21.87
2022-08-24T20:36:23.992Z,21.76
2022-08-24T20:38:51.163Z,21.78
2022-08-24T20:41:17.564Z,22.01
2022-08-24T20:43:45.001Z,22.25
2022-08-24T20:46:11.383Z,22.27
2022-08-24T20:48:41.889Z,22.30
2022-08-24T20:51:09.624Z,22.31
2022-08-24T20:53:35.983Z,22.40
2022-08-24T20:56:03.535Z,22.37
2022-08-24T20:58:29.899Z,22.36
2022-08-24T21:00:56.480Z,22.33
2022-08-24T21:03:23.305Z,22.19
2022-08-24T21:05:52.408Z,22.09
2022-08-24T21:08:19.258Z,22.15
2022-08-24T21:10:45.685Z,22.10
2022-08-24T21:13:12.033Z,22.06
2022-08-24T21:15:38.431Z,22.09
2022-08-24T21:18:05.120Z,22.04
2022-08-24T21:20:32.647Z,22.00
2022-08-24T21:22:59.022Z,21.95
2022-08-24T21:25:25.686Z,22.07
2022-08-24T21:27:52.077Z,22.07
2022-08-24T21:30:19.449Z,22.07
2022-08-24T21:33:04.741Z,21.98
2022-08-24T21:35:31.251Z,21.93
2022-08-24T21:37:59.018Z,21.91
2022-08-24T21:40:25.455Z,21.89
2022-08-24T21:42:51.891Z,21.82
2022-08-24T21:45:18.359Z,21.84
2022-08-24T21:47:44.910Z,21.85
2022-08-24T21:50:11.434Z,21.76
2022-08-24T21:52:38.991Z,21.82
2022-08-24T21:55:11.732Z,21.78
2022-08-24T21:57:41.126Z,21.69
2022-08-24T22:00:09.159Z,21.66
2022-08-24T22:02:35.534Z,21.68
2022-08-24T22:05:01.927Z,21.67
2022-08-24T22:07:28.334Z,21.59
2022-08-24T22:09:55.110Z,21.57
2022-08-24T22:12:21.478Z,21.53
2022-08-24T22:14:47.838Z,21.63
2022-08-24T22:17:14.197Z,21.54
2022-08-24T22:19:40.543Z,21.57
2022-08-24T22:22:07.218Z,21.55
2022-08-24T22:24:33.608Z,21.43
2022-08-24T22:26:59.963Z,21.33
2022-08-24T22:29:26.612Z,21.23
2022-08-24T22:31:53.012Z,21.31
2022-08-24T22:34:20.663Z,21.31
2022-08-24T22:36:47.495Z,21.20
2022-08-24T22:39:13.921Z,21.05
2022-08-24T22:41:40.493Z,21.11
2022-08-24T22:44:18.997Z,21.02
2022-08-24T22:46:45.825Z,20.93
2022-08-24T22:49:12.292Z,20.76
2022-08-24T22:51:38.954Z,20.88
2022-08-24T22:54:05.312Z,20.76
2022-08-24T22:56:33.218Z,20.72
2022-08-24T22:59:01.694Z,20.88
2022-08-24T23:01:29.051Z,21.02
2022-08-24T23:03:55.782Z,20.97
2022-08-24T23:06:22.247Z,20.95
2022-08-24T23:08:48.614Z,20.82
2022-08-24T23:11:14.983Z,20.66
2022-08-24T23:13:41.558Z,20.53
2022-08-24T23:16:08.641Z,20.48
2022-08-24T23:18:53.895Z,20.50
2022-08-24T23:21:20.267Z,20.52
2022-08-24T23:23:46.629Z,20.43
2022-08-24T23:26:18.408Z,20.26
2022-08-24T23:28:45.282Z,20.02
2022-08-24T23:31:16.325Z,19.86
2022-08-24T23:33:42.926Z,19.94
2022-08-24T23:36:10.907Z,20.05
2022-08-24T23:38:37.255Z,20.05
2022-08-24T23:41:07.033Z,20.30
2022-08-24T23:43:36.623Z,20.23
2022-08-24T23:46:03.342Z,20.09
2022-08-24T23:48:29.805Z,20.07
2022-08-24T23:50:56.225Z,20.04
2022-08-24T23:53:23.793Z,19.94
2022-08-24T23:55:50.545Z,19.71
2022-08-24T23:58:16.919Z,19.69
